createdAt,value
2018-05-26T00:00:23.888Z,11.60
2018-05-26T00:01:29.405Z,11.60
2018-05-26T00:02:34.916Z,10.90
2018-05-26T00:03:41.461Z,11.40
2018-05-26T00:04:45.969Z,11.50
2018-05-26T00:05:51.461Z,11.70
2018-05-26T00:06:56.983Z,11.40
2018-05-26T00:08:02.495Z,11.60
2018-05-26T00:09:08.028Z,11.40
2018-05-26T00:10:14.551Z,11.40
2018-05-26T00:11:19.055Z,12.00
2018-05-26T00:12:24.566Z,11.90
2018-05-26T00:13:30.082Z,11.80
2018-05-26T00:14:35.598Z,11.60
2018-05-26T00:15:41.137Z,11.50
2018-05-26T00:16:47.656Z,11.80
2018-05-26T00:17:52.164Z,12.20
2018-05-26T00:18:57.667Z,12.90
2018-05-26T00:20:03.191Z,13.80
2018-05-26T00:21:08.695Z,13.50
2018-05-26T00:22:14.226Z,12.90
2018-05-26T00:23:20.761Z,12.60
2018-05-26T00:24:25.260Z,12.30
2018-05-26T00:25:30.822Z,11.90
2018-05-26T00:26:36.295Z,12.40
2018-05-26T00:27:41.801Z,12.80
2018-05-26T00:28:47.323Z,12.30
2018-05-26T00:29:53.847Z,12.30
2018-05-26T00:30:58.431Z,12.60
2018-05-26T00:32:03.867Z,12.30
2018-05-26T00:33:09.383Z,12.10
2018-05-26T00:34:14.916Z,13.00
2018-05-26T00:35:20.415Z,12.40
2018-05-26T00:36:26.946Z,12.50
2018-05-26T00:37:31.447Z,11.90
2018-05-26T00:38:36.979Z,12.20
2018-05-26T00:39:42.488Z,11.90
2018-05-26T00:40:48.000Z,12.40
2018-05-26T00:41:53.531Z,12.40
2018-05-26T00:43:00.052Z,13.00
2018-05-26T00:44:04.553Z,12.10
2018-05-26T00:45:10.063Z,12.50
2018-05-26T00:46:15.576Z,12.10
2018-05-26T00:47:21.107Z,12.60
2018-05-26T00:48:26.617Z,12.50
2018-05-26T00:49:33.145Z,11.90
2018-05-26T00:50:37.645Z,12.20
2018-05-26T00:51:43.167Z,12.30
2018-05-26T00:52:48.687Z,12.40
2018-05-26T00:53:54.194Z,13.10
2018-05-26T00:54:59.707Z,12.90
2018-05-26T00:56:06.261Z,12.10
2018-05-26T00:57:10.740Z,12.80
2018-05-26T00:58:16.294Z,12.10
2018-05-26T00:59:21.796Z,12.30
2018-05-26T01:00:27.330Z,12.70
2018-05-26T01:01:32.811Z,12.10
2018-05-26T01:02:39.337Z,12.20
2018-05-26T01:03:43.911Z,12.50
2018-05-26T01:04:49.365Z,12.10
2018-05-26T01:05:54.877Z,11.80
2018-05-26T01:07:00.422Z,13.00
2018-05-26T01:08:05.906Z,12.80
2018-05-26T01:09:12.440Z,12.10
2018-05-26T01:10:16.960Z,13.40
2018-05-26T01:11:22.462Z,12.30
2018-05-26T01:12:27.970Z,11.70
2018-05-26T01:13:33.490Z,12.20
2018-05-26T01:14:39.010Z,12.70
2018-05-26T01:15:45.542Z,12.40
2018-05-26T01:16:50.043Z,12.20
2018-05-26T01:17:55.566Z,12.10
2018-05-26T01:19:01.074Z,12.80
2018-05-26T01:20:06.593Z,13.10
2018-05-26T01:21:12.104Z,12.50
2018-05-26T01:22:18.634Z,12.70
2018-05-26T01:23:23.141Z,12.70
2018-05-26T01:24:28.658Z,13.10
2018-05-26T01:25:34.171Z,12.90
2018-05-26T01:26:39.710Z,13.50
2018-05-26T01:27:45.201Z,14.20
2018-05-26T01:28:51.722Z,14.00
2018-05-26T01:29:56.236Z,14.50
2018-05-26T01:31:01.760Z,12.80
2018-05-26T01:32:07.269Z,13.10
2018-05-26T01:33:12.785Z,12.40
2018-05-26T01:34:18.303Z,12.30
2018-05-26T01:35:24.828Z,12.60
2018-05-26T01:36:29.338Z,13.10
2018-05-26T01:37:34.849Z,12.50
2018-05-26T01:38:40.418Z,12.40
2018-05-26T01:39:45.888Z,13.00
2018-05-26T01:40:51.427Z,13.00
2018-05-26T01:41:57.931Z,13.30
2018-05-26T01:43:02.448Z,13.80
2018-05-26T01:44:07.947Z,13.50
2018-05-26T01:45:13.459Z,12.90
2018-05-26T01:46:19.000Z,13.40
2018-05-26T01:47:24.503Z,12.50
2018-05-26T01:48:31.029Z,13.60
2018-05-26T01:49:35.534Z,13.60
2018-05-26T01:50:41.053Z,13.80
2018-05-26T01:51:46.557Z,13.50
2018-05-26T01:52:52.075Z,14.00
2018-05-26T01:53:57.598Z,14.60
2018-05-26T01:55:04.117Z,13.60
2018-05-26T01:56:08.625Z,13.40
2018-05-26T01:57:14.144Z,13.70
2018-05-26T01:58:19.685Z,13.50
2018-05-26T01:59:25.176Z,13.90
2018-05-26T02:00:30.692Z,14.40
2018-05-26T02:01:37.211Z,14.00
2018-05-26T02:02:41.726Z,14.00
2018-05-26T02:03:47.240Z,13.20
2018-05-26T02:04:52.756Z,14.00
2018-05-26T02:05:58.286Z,15.00
2018-05-26T02:07:03.782Z,15.20
2018-05-26T02:08:10.311Z,13.90
2018-05-26T02:09:14.827Z,13.00
2018-05-26T02:10:20.330Z,13.30
2018-05-26T02:11:25.857Z,12.90
2018-05-26T02:12:31.382Z,12.50
2018-05-26T02:13:36.894Z,13.00
2018-05-26T02:14:43.459Z,13.40
2018-05-26T02:15:48.033Z,13.00
2018-05-26T02:16:53.429Z,13.20
2018-05-26T02:17:58.942Z,12.80
2018-05-26T02:19:04.473Z,12.90
2018-05-26T02:20:09.986Z,13.20
2018-05-26T02:21:16.515Z,13.20
2018-05-26T02:22:21.010Z,12.50
2018-05-26T02:23:26.530Z,13.50
2018-05-26T02:24:32.052Z,13.60
2018-05-26T02:25:37.574Z,13.60
2018-05-26T02:26:43.079Z,13.10
2018-05-26T02:27:49.609Z,13.00
2018-05-26T02:28:54.106Z,12.40
2018-05-26T02:29:59.629Z,12.80
2018-05-26T02:31:05.147Z,13.40
2018-05-26T02:32:10.650Z,13.70
2018-05-26T02:33:16.171Z,13.40
2018-05-26T02:34:22.699Z,13.70
2018-05-26T02:35:27.198Z,13.70
2018-05-26T02:36:32.722Z,13.60
2018-05-26T02:37:38.237Z,13.20
2018-05-26T02:38:43.760Z,13.60
2018-05-26T02:39:49.267Z,12.30
2018-05-26T02:40:55.805Z,14.20
2018-05-26T02:42:00.320Z,13.50
2018-05-26T02:43:05.813Z,12.90
2018-05-26T02:44:11.330Z,12.60
2018-05-26T02:45:16.845Z,12.10
2018-05-26T02:46:22.385Z,12.70
2018-05-26T02:47:28.906Z,12.30
2018-05-26T02:48:33.399Z,14.50
2018-05-26T02:49:38.915Z,13.70
2018-05-26T02:50:44.426Z,12.70
2018-05-26T02:51:49.953Z,13.00
2018-05-26T02:52:55.467Z,12.70
2018-05-26T02:54:01.994Z,12.80
2018-05-26T02:55:06.488Z,13.40
2018-05-26T02:56:12.009Z,13.30
2018-05-26T02:57:17.530Z,13.50
2018-05-26T02:58:23.047Z,13.80
2018-05-26T02:59:28.557Z,13.40
2018-05-26T03:00:35.080Z,13.90
2018-05-26T03:01:39.582Z,14.00
2018-05-26T03:02:45.105Z,14.30
2018-05-26T03:03:50.620Z,14.20
2018-05-26T03:04:56.137Z,13.10
2018-05-26T03:06:01.660Z,12.70
2018-05-26T03:07:08.181Z,12.90
2018-05-26T03:08:12.685Z,12.40
2018-05-26T03:09:18.201Z,12.80
2018-05-26T03:10:23.724Z,13.00
2018-05-26T03:11:29.233Z,13.10
2018-05-26T03:12:34.750Z,13.30
2018-05-26T03:13:41.271Z,13.00
2018-05-26T03:14:45.780Z,12.20
2018-05-26T03:15:51.302Z,12.10
2018-05-26T03:16:56.820Z,12.00
2018-05-26T03:18:02.332Z,12.00
2018-05-26T03:19:07.859Z,12.10
2018-05-26T03:20:14.367Z,11.80
2018-05-26T03:21:18.868Z,11.70
2018-05-26T03:22:24.393Z,12.60
2018-05-26T03:23:29.913Z,12.10
2018-05-26T03:24:35.423Z,12.60
2018-05-26T03:25:40.956Z,12.30
2018-05-26T03:26:47.476Z,13.00
2018-05-26T03:27:51.963Z,13.00
2018-05-26T03:28:57.575Z,12.90
2018-05-26T03:30:03.001Z,12.20
2018-05-26T03:31:08.513Z,13.00
2018-05-26T03:32:14.027Z,12.90
2018-05-26T03:33:20.552Z,12.60
2018-05-26T03:34:25.055Z,12.60
2018-05-26T03:35:30.579Z,12.80
2018-05-26T03:36:36.091Z,13.40
2018-05-26T03:37:41.611Z,13.20
2018-05-26T03:38:47.121Z,14.00
2018-05-26T03:39:53.649Z,13.60
2018-05-26T03:40:58.183Z,12.90
2018-05-26T03:42:03.664Z,12.90
2018-05-26T03:43:09.183Z,12.80
2018-05-26T03:44:14.698Z,12.90
2018-05-26T03:45:20.212Z,13.50
2018-05-26T03:46:26.760Z,12.80
2018-05-26T03:47:31.253Z,13.70
2018-05-26T03:48:36.777Z,13.90
2018-05-26T03:49:42.287Z,13.80
2018-05-26T03:50:47.795Z,14.20
2018-05-26T03:51:53.319Z,13.80
2018-05-26T03:52:59.839Z,14.00
2018-05-26T03:54:04.346Z,14.20
2018-05-26T03:55:09.856Z,15.20
2018-05-26T03:56:15.383Z,15.70
2018-05-26T03:57:20.888Z,14.00
2018-05-26T03:58:26.401Z,14.90
2018-05-26T03:59:32.931Z,15.30
2018-05-26T04:00:37.435Z,16.10
2018-05-26T04:01:42.952Z,15.50
2018-05-26T04:02:48.471Z,15.40
2018-05-26T04:03:53.984Z,15.10
2018-05-26T04:04:59.507Z,15.30
2018-05-26T04:06:06.076Z,15.40
2018-05-26T04:07:10.539Z,15.50
2018-05-26T04:08:16.049Z,15.00
2018-05-26T04:09:21.560Z,15.00
2018-05-26T04:10:27.082Z,14.90
2018-05-26T04:11:32.594Z,15.40
2018-05-26T04:12:39.122Z,15.70
2018-05-26T04:13:43.626Z,16.20
2018-05-26T04:14:49.145Z,16.50
2018-05-26T04:15:54.655Z,15.10
2018-05-26T04:17:00.177Z,15.10
2018-05-26T04:18:05.688Z,15.50
2018-05-26T04:19:12.216Z,15.40
2018-05-26T04:20:16.723Z,16.10
2018-05-26T04:21:22.241Z,15.90
2018-05-26T04:22:27.753Z,15.80
2018-05-26T04:23:33.264Z,16.50
2018-05-26T04:24:38.784Z,16.10
2018-05-26T04:25:45.307Z,16.80
2018-05-26T04:26:49.849Z,16.50
2018-05-26T04:27:55.329Z,16.40
2018-05-26T04:29:00.853Z,15.70
2018-05-26T04:30:06.367Z,15.90
2018-05-26T04:31:11.883Z,15.90
2018-05-26T04:32:18.408Z,15.30
2018-05-26T04:33:22.906Z,15.40
2018-05-26T04:34:28.435Z,16.10
2018-05-26T04:35:33.940Z,15.60
2018-05-26T04:36:39.459Z,15.90
2018-05-26T04:37:45.082Z,17.00
2018-05-26T04:38:51.513Z,16.70
2018-05-26T04:39:56.017Z,17.10
2018-05-26T04:41:01.542Z,15.60
2018-05-26T04:42:07.036Z,16.10
2018-05-26T04:43:12.561Z,16.00
2018-05-26T04:44:18.074Z,15.90
2018-05-26T04:45:24.606Z,16.10
2018-05-26T04:46:29.119Z,16.20
2018-05-26T04:47:34.620Z,16.60
2018-05-26T04:48:40.137Z,17.60
2018-05-26T04:49:45.656Z,17.40
2018-05-26T04:50:51.170Z,17.40
2018-05-26T04:51:57.692Z,17.60
2018-05-26T04:53:02.209Z,19.00
2018-05-26T04:54:07.727Z,18.70
2018-05-26T04:55:13.230Z,19.00
2018-05-26T04:56:18.753Z,18.50
2018-05-26T04:57:24.264Z,17.70
2018-05-26T04:58:30.791Z,18.50
2018-05-26T04:59:35.299Z,18.00
2018-05-26T05:00:40.816Z,18.80
2018-05-26T05:01:46.327Z,18.70
2018-05-26T05:02:51.850Z,18.50
2018-05-26T05:03:57.357Z,17.90
2018-05-26T05:05:03.903Z,18.40
2018-05-26T05:06:08.403Z,18.90
2018-05-26T05:07:13.910Z,19.20
2018-05-26T05:08:19.431Z,19.20
2018-05-26T05:09:25.054Z,18.70
2018-05-26T05:10:30.468Z,19.20
2018-05-26T05:11:37.088Z,18.20
2018-05-26T05:12:41.595Z,19.60
2018-05-26T05:13:47.005Z,18.80
2018-05-26T05:14:52.557Z,18.30
2018-05-26T05:15:58.044Z,18.70
2018-05-26T05:17:03.563Z,19.70
2018-05-26T05:18:10.099Z,18.50
2018-05-26T05:19:14.589Z,20.40
2018-05-26T05:20:20.111Z,18.90
2018-05-26T05:21:25.625Z,18.70
2018-05-26T05:22:31.144Z,19.10
2018-05-26T05:23:36.667Z,19.50
2018-05-26T05:24:43.186Z,18.40
2018-05-26T05:25:47.694Z,18.30
2018-05-26T05:26:53.217Z,17.40
2018-05-26T05:27:58.726Z,17.90
2018-05-26T05:29:04.242Z,18.30
2018-05-26T05:30:09.761Z,18.40
2018-05-26T05:31:16.284Z,18.00
2018-05-26T05:32:20.791Z,17.50
2018-05-26T05:33:26.308Z,18.00
2018-05-26T05:34:31.824Z,17.90
2018-05-26T05:35:37.337Z,17.90
2018-05-26T05:36:42.855Z,18.50
2018-05-26T05:37:49.405Z,19.40
2018-05-26T05:38:53.888Z,18.00
2018-05-26T05:39:59.411Z,18.90
2018-05-26T05:41:04.930Z,18.30
2018-05-26T05:42:10.437Z,18.00
2018-05-26T05:43:15.959Z,18.30
2018-05-26T05:44:22.488Z,18.00
2018-05-26T05:45:26.991Z,17.60
2018-05-26T05:46:32.513Z,17.60
2018-05-26T05:47:38.058Z,17.00
2018-05-26T05:48:43.548Z,17.10
2018-05-26T05:49:49.146Z,17.00
2018-05-26T05:50:55.626Z,16.80
2018-05-26T05:52:00.101Z,17.50
2018-05-26T05:53:05.661Z,17.00
2018-05-26T05:54:11.129Z,17.40
2018-05-26T05:55:16.642Z,17.50
2018-05-26T05:56:22.223Z,17.90
2018-05-26T05:57:28.683Z,18.60
2018-05-26T05:58:33.192Z,18.10
2018-05-26T05:59:38.720Z,17.40
2018-05-26T06:00:44.220Z,17.50
2018-05-26T06:01:49.747Z,17.20
2018-05-26T06:02:55.267Z,16.00
2018-05-26T06:04:01.787Z,16.10
2018-05-26T06:05:06.293Z,15.60
2018-05-26T06:06:11.816Z,16.10
2018-05-26T06:07:17.345Z,16.20
2018-05-26T06:08:22.851Z,16.30
2018-05-26T06:09:28.369Z,16.50
2018-05-26T06:10:34.890Z,16.30
2018-05-26T06:11:39.408Z,15.50
2018-05-26T06:12:44.911Z,16.20
2018-05-26T06:13:50.438Z,15.80
2018-05-26T06:14:55.984Z,15.40
2018-05-26T06:16:01.464Z,14.20
2018-05-26T06:17:07.994Z,14.50
2018-05-26T06:18:12.509Z,13.40
2018-05-26T06:19:18.031Z,14.00
2018-05-26T06:20:23.542Z,13.50
2018-05-26T06:21:29.049Z,12.60
2018-05-26T06:22:34.593Z,13.00
2018-05-26T06:23:41.113Z,12.80
2018-05-26T06:24:45.605Z,12.80
2018-05-26T06:25:51.178Z,12.10
2018-05-26T06:26:56.636Z,12.50
2018-05-26T06:28:02.163Z,11.80
2018-05-26T06:29:07.674Z,11.70
2018-05-26T06:30:14.203Z,10.90
2018-05-26T06:31:18.722Z,11.30
2018-05-26T06:32:24.235Z,11.20
2018-05-26T06:33:29.755Z,12.10
2018-05-26T06:34:35.275Z,11.80
2018-05-26T06:35:40.777Z,12.00
2018-05-26T06:36:47.309Z,11.70
2018-05-26T06:37:51.810Z,11.50
2018-05-26T06:38:57.334Z,11.40
2018-05-26T06:40:02.852Z,11.10
2018-05-26T06:41:08.381Z,11.40
2018-05-26T06:42:13.896Z,10.40
2018-05-26T06:43:20.411Z,10.90
2018-05-26T06:44:24.924Z,10.30
2018-05-26T06:45:30.431Z,10.50
2018-05-26T06:46:35.966Z,9.90
2018-05-26T06:47:41.478Z,10.00
2018-05-26T06:48:47.000Z,10.10
2018-05-26T06:49:53.524Z,10.10
2018-05-26T06:50:58.042Z,9.80
2018-05-26T06:52:03.553Z,9.90
2018-05-26T06:53:09.091Z,10.00
2018-05-26T06:54:14.578Z,9.80
2018-05-26T06:55:20.099Z,9.50
2018-05-26T06:56:26.648Z,9.60
2018-05-26T06:57:31.158Z,9.10
2018-05-26T06:58:36.666Z,9.50
2018-05-26T06:59:42.174Z,9.70
2018-05-26T07:00:47.723Z,9.00
2018-05-26T07:01:53.218Z,8.90
2018-05-26T07:02:59.747Z,8.60
2018-05-26T07:04:04.243Z,8.80
2018-05-26T07:05:09.777Z,8.20
2018-05-26T07:06:15.296Z,9.40
2018-05-26T07:07:20.794Z,9.00
2018-05-26T07:08:26.317Z,8.50
2018-05-26T07:09:32.849Z,8.00
2018-05-26T07:10:37.362Z,8.10
2018-05-26T07:11:42.894Z,8.30
2018-05-26T07:12:48.397Z,8.80
2018-05-26T07:13:53.906Z,9.00
2018-05-26T07:14:59.432Z,8.20
2018-05-26T07:16:05.957Z,8.40
2018-05-26T07:17:10.471Z,8.50
2018-05-26T07:18:15.986Z,8.30
2018-05-26T07:19:21.501Z,8.40
2018-05-26T07:20:27.020Z,8.30
2018-05-26T07:21:32.546Z,7.70
2018-05-26T07:22:39.080Z,7.80
2018-05-26T07:23:43.592Z,8.00
2018-05-26T07:24:49.170Z,7.90
2018-05-26T07:25:54.619Z,8.00
2018-05-26T07:27:00.124Z,8.00
2018-05-26T07:28:05.645Z,7.80
2018-05-26T07:29:12.178Z,7.70
2018-05-26T07:30:16.749Z,7.80
2018-05-26T07:31:22.213Z,7.40
2018-05-26T07:32:27.724Z,8.00
2018-05-26T07:33:33.246Z,7.60
2018-05-26T07:34:38.768Z,7.80
2018-05-26T07:35:45.298Z,7.40
2018-05-26T07:36:49.804Z,7.80
2018-05-26T07:37:55.326Z,7.10
2018-05-26T07:39:00.865Z,7.80
2018-05-26T07:40:06.364Z,7.70
2018-05-26T07:41:11.879Z,7.10
2018-05-26T07:42:18.413Z,7.00
2018-05-26T07:43:22.910Z,7.10
2018-05-26T07:44:28.430Z,7.00
2018-05-26T07:45:33.951Z,6.70
2018-05-26T07:46:39.473Z,7.10
2018-05-26T07:47:44.991Z,6.80
2018-05-26T07:48:51.537Z,7.10
2018-05-26T07:49:56.042Z,6.60
2018-05-26T07:51:01.554Z,6.80
2018-05-26T07:52:07.067Z,7.20
2018-05-26T07:53:12.634Z,6.60
2018-05-26T07:54:18.113Z,6.70
2018-05-26T07:55:24.647Z,6.90
2018-05-26T07:56:29.153Z,6.90
2018-05-26T07:57:34.665Z,6.90
2018-05-26T07:58:40.192Z,7.10
2018-05-26T07:59:45.705Z,6.80
2018-05-26T08:00:51.231Z,6.60
2018-05-26T08:01:57.744Z,6.80
2018-05-26T08:03:02.254Z,6.70
2018-05-26T08:04:07.783Z,6.50
2018-05-26T08:05:13.426Z,6.80
2018-05-26T08:06:18.942Z,6.50
2018-05-26T08:07:24.349Z,6.50
2018-05-26T08:08:30.877Z,6.60
2018-05-26T08:09:35.372Z,6.50
2018-05-26T08:10:40.902Z,6.80
2018-05-26T08:11:46.420Z,6.50
2018-05-26T08:12:51.951Z,6.90
2018-05-26T08:13:57.446Z,7.00
2018-05-26T08:15:03.982Z,6.60
2018-05-26T08:16:08.506Z,7.10
2018-05-26T08:17:14.078Z,6.90
2018-05-26T08:18:19.529Z,6.80
2018-05-26T08:19:25.052Z,7.00
2018-05-26T08:20:30.576Z,6.90
2018-05-26T08:21:37.110Z,7.80
2018-05-26T08:22:41.611Z,7.30
2018-05-26T08:23:47.130Z,7.10
2018-05-26T08:24:52.644Z,7.70
2018-05-26T08:25:58.178Z,7.40
2018-05-26T08:27:03.688Z,7.00
2018-05-26T08:28:10.221Z,7.20
2018-05-26T08:29:14.736Z,7.20
2018-05-26T08:30:20.244Z,7.20
2018-05-26T08:31:25.769Z,6.80
2018-05-26T08:32:31.287Z,6.80
2018-05-26T08:33:36.821Z,6.70
2018-05-26T08:34:43.465Z,7.10
2018-05-26T08:35:47.995Z,7.30
2018-05-26T08:36:53.372Z,6.80
2018-05-26T08:37:58.894Z,7.70
2018-05-26T08:39:04.412Z,7.60
2018-05-26T08:40:09.942Z,7.10
2018-05-26T08:41:16.456Z,7.30
2018-05-26T08:42:20.972Z,6.70
2018-05-26T08:43:26.487Z,7.10
2018-05-26T08:44:32.006Z,7.00
2018-05-26T08:45:37.520Z,6.70
2018-05-26T08:46:43.051Z,7.00
2018-05-26T08:47:49.600Z,6.90
2018-05-26T08:48:54.091Z,6.90
2018-05-26T08:49:59.599Z,6.90
2018-05-26T08:51:05.136Z,6.80
2018-05-26T08:52:10.639Z,6.80
2018-05-26T08:53:16.177Z,6.70
2018-05-26T08:54:22.701Z,6.60
2018-05-26T08:55:27.200Z,6.90
2018-05-26T08:56:32.744Z,7.40
2018-05-26T08:57:38.246Z,6.70
2018-05-26T08:58:43.770Z,6.90
2018-05-26T08:59:49.291Z,6.50
2018-05-26T09:00:55.814Z,6.90
2018-05-26T09:02:00.343Z,6.40
2018-05-26T09:03:05.848Z,6.20
2018-05-26T09:04:11.375Z,6.50
2018-05-26T09:05:16.919Z,6.50
2018-05-26T09:06:22.436Z,6.90
2018-05-26T09:07:28.946Z,6.80
2018-05-26T09:08:33.448Z,6.60
2018-05-26T09:09:38.968Z,6.30
2018-05-26T09:10:44.497Z,6.00
2018-05-26T09:11:50.016Z,6.70
2018-05-26T09:12:55.541Z,6.40
2018-05-26T09:14:02.063Z,6.40
2018-05-26T09:15:06.575Z,6.40
2018-05-26T09:16:12.107Z,6.00
2018-05-26T09:17:17.628Z,5.90
2018-05-26T09:18:24.085Z,6.10
2018-05-26T09:19:28.676Z,6.20
2018-05-26T09:20:35.181Z,6.40
2018-05-26T09:21:39.699Z,5.90
2018-05-26T09:22:45.366Z,6.30
2018-05-26T09:23:50.756Z,6.70
2018-05-26T09:24:56.252Z,6.20
2018-05-26T09:26:01.737Z,6.20
2018-05-26T09:27:08.322Z,5.80
2018-05-26T09:28:12.832Z,5.80
2018-05-26T09:29:18.345Z,5.90
2018-05-26T09:30:23.860Z,5.30
2018-05-26T09:31:29.394Z,5.90
2018-05-26T09:32:34.908Z,5.70
2018-05-26T09:33:41.453Z,6.00
2018-05-26T09:34:45.949Z,5.60
2018-05-26T09:35:51.466Z,6.20
2018-05-26T09:36:56.995Z,6.00
2018-05-26T09:38:02.503Z,5.40
2018-05-26T09:39:08.036Z,5.40
2018-05-26T09:40:14.624Z,5.20
2018-05-26T09:41:19.216Z,5.40
2018-05-26T09:42:24.595Z,5.30
2018-05-26T09:43:30.160Z,5.10
2018-05-26T09:44:35.640Z,5.00
2018-05-26T09:45:41.169Z,5.20
2018-05-26T09:46:47.699Z,5.00
2018-05-26T09:47:52.201Z,5.10
2018-05-26T09:48:57.719Z,5.30
2018-05-26T09:50:03.245Z,5.20
2018-05-26T09:51:08.781Z,5.10
2018-05-26T09:52:14.289Z,5.20
2018-05-26T09:53:20.848Z,5.40
2018-05-26T09:54:25.350Z,5.20
2018-05-26T09:55:30.851Z,5.10
2018-05-26T09:56:36.369Z,5.10
2018-05-26T09:57:41.883Z,5.10
2018-05-26T09:58:47.416Z,4.90
2018-05-26T09:59:53.960Z,5.20
2018-05-26T10:00:58.456Z,5.20
2018-05-26T10:02:03.983Z,5.90
2018-05-26T10:03:09.493Z,5.70
2018-05-26T10:04:15.051Z,5.40
2018-05-26T10:05:20.536Z,5.80
2018-05-26T10:06:27.076Z,5.90
2018-05-26T10:07:31.582Z,6.30
2018-05-26T10:08:37.113Z,5.70
2018-05-26T10:09:42.615Z,5.70
2018-05-26T10:10:48.153Z,6.20
2018-05-26T10:11:53.680Z,6.30
2018-05-26T10:13:00.224Z,6.10
2018-05-26T10:14:04.705Z,5.90
2018-05-26T10:15:10.234Z,6.20
2018-05-26T10:16:15.743Z,5.60
2018-05-26T10:17:21.279Z,6.10
2018-05-26T10:18:26.856Z,5.80
2018-05-26T10:19:33.332Z,6.10
2018-05-26T10:20:37.836Z,5.80
2018-05-26T10:21:43.359Z,5.70
2018-05-26T10:22:48.875Z,6.00
2018-05-26T10:23:54.402Z,5.90
2018-05-26T10:24:59.931Z,6.00
2018-05-26T10:26:06.461Z,5.90
2018-05-26T10:27:10.964Z,5.60
2018-05-26T10:28:16.506Z,5.70
2018-05-26T10:29:22.026Z,5.70
2018-05-26T10:30:27.530Z,5.50
2018-05-26T10:31:33.060Z,5.60
2018-05-26T10:32:39.637Z,5.20
2018-05-26T10:33:44.096Z,5.50
2018-05-26T10:34:49.619Z,5.30
2018-05-26T10:35:55.140Z,4.90
2018-05-26T10:37:00.684Z,4.80
2018-05-26T10:38:06.210Z,5.10
2018-05-26T10:39:12.722Z,5.00
2018-05-26T10:40:17.225Z,5.10
2018-05-26T10:41:22.755Z,5.00
2018-05-26T10:42:28.281Z,5.00
2018-05-26T10:43:33.795Z,5.10
2018-05-26T10:44:39.332Z,5.20
2018-05-26T10:45:45.856Z,5.10
2018-05-26T10:46:50.371Z,5.00
2018-05-26T10:47:55.884Z,5.30
2018-05-26T10:49:01.402Z,5.40
2018-05-26T10:50:06.932Z,5.10
2018-05-26T10:51:12.476Z,5.30
2018-05-26T10:52:19.012Z,5.00
2018-05-26T10:53:23.494Z,5.20
2018-05-26T10:54:29.012Z,5.40
2018-05-26T10:55:34.532Z,5.00
2018-05-26T10:56:40.075Z,5.60
2018-05-26T10:57:45.587Z,4.90
2018-05-26T10:58:52.122Z,5.30
2018-05-26T10:59:56.633Z,5.50
2018-05-26T11:01:02.141Z,5.30
2018-05-26T11:02:07.673Z,5.80
2018-05-26T11:03:13.200Z,5.50
2018-05-26T11:04:18.751Z,5.40
2018-05-26T11:05:25.257Z,5.40
2018-05-26T11:06:29.764Z,5.80
2018-05-26T11:07:35.290Z,5.30
2018-05-26T11:08:40.803Z,6.30
2018-05-26T11:09:46.422Z,6.00
2018-05-26T11:10:52.247Z,6.10
2018-05-26T11:11:58.548Z,6.30
2018-05-26T11:13:03.430Z,5.00
2018-05-26T11:14:09.699Z,5.70
2018-05-26T11:15:14.552Z,8.20
2018-05-26T11:16:20.069Z,8.10
2018-05-26T11:17:25.473Z,5.90
2018-05-26T11:18:31.571Z,5.60
2018-05-26T11:19:36.210Z,5.80
2018-05-26T11:20:41.571Z,5.30
2018-05-26T11:21:47.078Z,5.90
2018-05-26T11:22:52.605Z,5.90
2018-05-26T11:23:58.145Z,5.20
2018-05-26T11:25:04.657Z,6.00
2018-05-26T11:26:09.223Z,5.90
2018-05-26T11:27:14.688Z,6.40
2018-05-26T11:28:20.209Z,5.80
2018-05-26T11:29:25.755Z,6.60
2018-05-26T11:30:31.277Z,6.30
2018-05-26T11:31:37.800Z,6.30
2018-05-26T11:32:42.314Z,6.40
2018-05-26T11:33:47.838Z,6.30
2018-05-26T11:34:53.381Z,6.30
2018-05-26T11:35:58.954Z,5.90
2018-05-26T11:37:04.411Z,6.20
2018-05-26T11:38:10.931Z,6.30
2018-05-26T11:39:15.450Z,6.50
2018-05-26T11:40:20.969Z,6.40
2018-05-26T11:41:26.499Z,5.90
2018-05-26T11:42:32.018Z,6.00
2018-05-26T11:43:37.583Z,6.10
2018-05-26T11:44:44.070Z,6.30
2018-05-26T11:45:48.587Z,6.50
2018-05-26T11:46:54.112Z,6.20
2018-05-26T11:47:59.638Z,5.60
2018-05-26T11:49:05.155Z,5.90
2018-05-26T11:50:10.667Z,5.90
2018-05-26T11:51:17.213Z,5.70
2018-05-26T11:52:21.727Z,6.10
2018-05-26T11:53:27.249Z,5.60
2018-05-26T11:54:32.762Z,5.90
2018-05-26T11:55:38.288Z,5.90
2018-05-26T11:56:43.812Z,5.80
2018-05-26T11:57:50.370Z,5.70
2018-05-26T11:58:54.860Z,5.80
2018-05-26T12:00:00.383Z,5.80
2018-05-26T12:01:05.913Z,5.90
2018-05-26T12:02:11.503Z,5.70
2018-05-26T12:03:16.951Z,5.90
2018-05-26T12:04:23.490Z,5.90
2018-05-26T12:05:27.995Z,5.70
2018-05-26T12:06:33.518Z,5.80
2018-05-26T12:07:39.057Z,6.10
2018-05-26T12:08:44.621Z,6.00
2018-05-26T12:09:50.092Z,5.70
2018-05-26T12:10:56.707Z,5.90
2018-05-26T12:12:01.140Z,6.10
2018-05-26T12:13:06.664Z,6.30
2018-05-26T12:14:12.196Z,5.90
2018-05-26T12:15:17.701Z,6.30
2018-05-26T12:16:23.258Z,6.00
2018-05-26T12:17:29.822Z,6.10
2018-05-26T12:18:34.282Z,6.10
2018-05-26T12:19:39.797Z,5.90
2018-05-26T12:20:45.418Z,5.90
2018-05-26T12:21:50.855Z,5.70
2018-05-26T12:22:56.369Z,5.80
2018-05-26T12:24:02.901Z,6.00
2018-05-26T12:25:07.430Z,5.20
2018-05-26T12:26:12.936Z,5.90
2018-05-26T12:27:18.467Z,5.70
2018-05-26T12:28:23.981Z,5.60
2018-05-26T12:29:29.520Z,5.50
2018-05-26T12:30:36.143Z,5.20
2018-05-26T12:31:40.629Z,5.20
2018-05-26T12:32:46.088Z,5.30
2018-05-26T12:33:51.604Z,5.60
2018-05-26T12:34:57.199Z,5.40
2018-05-26T12:36:02.651Z,5.40
2018-05-26T12:37:09.192Z,5.70
2018-05-26T12:38:13.748Z,6.00
2018-05-26T12:39:19.219Z,5.70
2018-05-26T12:40:24.756Z,5.40
2018-05-26T12:41:30.272Z,5.50
2018-05-26T12:42:35.839Z,5.20
2018-05-26T12:43:42.357Z,5.60
2018-05-26T12:44:46.839Z,5.50
2018-05-26T12:45:52.399Z,5.30
2018-05-26T12:46:57.892Z,5.20
2018-05-26T12:48:03.414Z,5.10
2018-05-26T12:49:08.938Z,5.40
2018-05-26T12:50:15.515Z,6.00
2018-05-26T12:51:19.984Z,6.20
2018-05-26T12:52:25.495Z,6.30
2018-05-26T12:53:31.050Z,5.30
2018-05-26T12:54:36.552Z,5.40
2018-05-26T12:55:42.079Z,6.40
2018-05-26T12:56:48.624Z,7.80
2018-05-26T12:57:53.132Z,5.80
2018-05-26T12:58:58.652Z,5.20
2018-05-26T13:00:04.173Z,5.60
2018-05-26T13:01:09.701Z,5.40
2018-05-26T13:02:15.221Z,5.40
2018-05-26T13:03:21.745Z,5.80
2018-05-26T13:04:26.269Z,6.10
2018-05-26T13:05:31.788Z,5.90
2018-05-26T13:06:37.315Z,5.10
2018-05-26T13:07:42.835Z,5.50
2018-05-26T13:08:48.366Z,5.30
2018-05-26T13:09:54.891Z,5.90
2018-05-26T13:10:59.395Z,5.10
2018-05-26T13:12:04.932Z,5.70
2018-05-26T13:13:10.459Z,5.40
2018-05-26T13:14:15.985Z,4.90
2018-05-26T13:15:21.491Z,5.30
2018-05-26T13:16:28.045Z,5.10
2018-05-26T13:17:32.547Z,5.20
2018-05-26T13:18:38.097Z,5.10
2018-05-26T13:19:43.606Z,5.30
2018-05-26T13:20:49.121Z,4.90
2018-05-26T13:21:54.651Z,5.10
2018-05-26T13:23:01.174Z,4.70
2018-05-26T13:24:05.681Z,5.00
2018-05-26T13:25:11.210Z,4.90
2018-05-26T13:26:16.736Z,4.80
2018-05-26T13:27:22.261Z,4.70
2018-05-26T13:28:27.780Z,5.10
2018-05-26T13:29:34.327Z,4.60
2018-05-26T13:30:38.842Z,5.10
2018-05-26T13:31:44.351Z,6.10
2018-05-26T13:32:49.869Z,5.10
2018-05-26T13:33:55.392Z,5.10
2018-05-26T13:35:00.913Z,5.30
2018-05-26T13:36:07.456Z,4.90
2018-05-26T13:37:11.966Z,4.70
2018-05-26T13:38:17.537Z,4.80
2018-05-26T13:39:23.014Z,4.70
2018-05-26T13:40:28.529Z,4.50
2018-05-26T13:41:34.063Z,4.70
2018-05-26T13:42:40.593Z,4.90
2018-05-26T13:43:45.169Z,4.60
2018-05-26T13:44:50.639Z,5.00
2018-05-26T13:45:56.153Z,4.50
2018-05-26T13:47:01.679Z,4.70
2018-05-26T13:48:07.214Z,4.80
2018-05-26T13:49:13.744Z,5.20
2018-05-26T13:50:18.258Z,6.20
2018-05-26T13:51:23.870Z,5.00
2018-05-26T13:52:29.370Z,5.20
2018-05-26T13:53:34.924Z,5.20
2018-05-26T13:54:40.341Z,4.60
2018-05-26T13:55:46.950Z,5.00
2018-05-26T13:56:51.393Z,5.00
2018-05-26T13:57:56.921Z,4.90
2018-05-26T13:59:02.432Z,4.50
2018-05-26T14:00:07.965Z,4.60
2018-05-26T14:01:13.491Z,4.50
2018-05-26T14:02:20.139Z,4.50
2018-05-26T14:03:24.548Z,4.70
2018-05-26T14:04:30.049Z,4.60
2018-05-26T14:05:35.591Z,4.80
2018-05-26T14:06:41.091Z,4.70
2018-05-26T14:07:46.624Z,4.70
2018-05-26T14:08:53.153Z,4.30
2018-05-26T14:09:57.683Z,4.60
2018-05-26T14:11:03.204Z,4.50
2018-05-26T14:12:08.728Z,4.80
2018-05-26T14:13:14.240Z,4.70
2018-05-26T14:14:19.763Z,4.60
2018-05-26T14:15:26.293Z,4.40
2018-05-26T14:16:30.821Z,4.50
2018-05-26T14:17:36.348Z,4.50